Time;durP1;ratioP1;P1;durP2;ratioP2;P2;SDS_P1;SDS_P2;PMS_P1;PMS_P2;Temp;Humidity;BMP_temperature;BMP_pressure;BME280_temperature;BME280_humidity;BME280_pressure;Samples;Min_cycle;Max_cycle;Signal;HPM_P1;HPM_P2
2022/05/22 00:01:26;;;;;;;8.10;2.60;;;16.20;95.50;;;;;;4994785;28;20080;-88
2022/05/22 00:03:52;;;;;;;9.20;3.13;;;16.20;95.50;;;;;;4995315;28;20026;-87
2022/05/22 00:06:17;;;;;;;7.15;3.03;;;16.20;95.60;;;;;;4977365;28;20030;-88
2022/05/22 00:08:43;;;;;;;7.80;3.05;;;16.10;95.60;;;;;;4961174;28;20027;-88
2022/05/22 00:11:09;;;;;;;8.18;3.30;;;16.10;95.70;;;;;;4977008;28;20058;-87
2022/05/22 00:13:34;;;;;;;8.48;3.00;;;16.10;95.80;;;;;;4976309;28;20030;-88
2022/05/22 00:18:44;;;;;;;8.65;3.40;;;16.00;95.80;;;;;;4993723;28;20425;-87
2022/05/22 00:21:10;;;;;;;9.35;3.33;;;16.00;95.90;;;;;;4960959;28;20030;-88
2022/05/22 00:23:35;;;;;;;8.55;3.92;;;16.00;96.00;;;;;;4994681;28;20034;-89
2022/05/22 00:26:01;;;;;;;10.00;3.30;;;16.00;96.20;;;;;;4961358;28;20035;-88
2022/05/22 00:28:29;;;;;;;10.25;3.42;;;15.90;96.20;;;;;;4961385;28;20031;-89
2022/05/22 00:30:55;;;;;;;10.32;3.65;;;15.90;96.20;;;;;;4994243;28;20041;-88
2022/05/22 00:33:21;;;;;;;7.80;3.42;;;15.80;96.30;;;;;;4977135;28;20019;-87
2022/05/22 00:35:46;;;;;;;8.40;3.13;;;15.70;96.50;;;;;;4977129;28;20033;-88
2022/05/22 00:38:12;;;;;;;8.95;3.60;;;15.70;96.60;;;;;;4977402;28;20212;-88
2022/05/22 00:40:38;;;;;;;9.43;3.78;;;15.70;96.80;;;;;;4960792;28;20027;-88
2022/05/22 00:43:03;;;;;;;9.35;3.72;;;15.70;97.00;;;;;;4960951;28;20391;-88
2022/05/22 00:45:29;;;;;;;12.07;4.05;;;15.60;97.00;;;;;;4960186;28;20030;-88
2022/05/22 00:47:57;;;;;;;9.98;3.65;;;15.60;97.10;;;;;;4993836;28;20040;-87
2022/05/22 00:50:23;;;;;;;7.95;3.72;;;15.60;97.20;;;;;;4976976;28;20045;-89
2022/05/22 00:52:55;;;;;;;7.93;3.47;;;15.60;97.30;;;;;;4976766;28;20030;-88
2022/05/22 00:55:26;;;;;;;9.82;3.60;;;15.60;97.30;;;;;;4994422;28;20058;-88
2022/05/22 00:57:56;;;;;;;9.77;4.03;;;15.50;97.30;;;;;;4976842;28;20027;-88
2022/05/22 01:00:25;;;;;;;7.53;3.42;;;15.50;97.40;;;;;;4976558;28;20029;-88
2022/05/22 01:05:40;;;;;;;8.02;3.90;;;15.50;97.50;;;;;;4994476;28;20108;-88
2022/05/22 01:08:06;;;;;;;8.55;3.97;;;15.40;97.50;;;;;;4976820;28;20026;-88
2022/05/22 01:10:43;;;;;;;10.77;4.15;;;15.40;97.50;;;;;;4976375;28;20058;-88
2022/05/22 01:13:11;;;;;;;9.15;4.03;;;15.40;97.50;;;;;;4976735;28;20037;-87
2022/05/22 01:15:36;;;;;;;6.88;3.67;;;15.40;97.60;;;;;;4993964;28;20030;-88
2022/05/22 01:18:02;;;;;;;9.13;3.95;;;15.30;97.60;;;;;;4960647;28;20030;-88
2022/05/22 01:20:28;;;;;;;14.27;4.45;;;15.30;97.70;;;;;;4976530;28;20129;-87
2022/05/22 01:22:53;;;;;;;10.95;4.50;;;15.30;97.70;;;;;;4992887;28;20038;-89
2022/05/22 01:25:19;;;;;;;10.85;4.07;;;15.20;97.70;;;;;;4958562;28;20080;-88
2022/05/22 01:27:44;;;;;;;11.32;4.85;;;15.20;97.70;;;;;;4959813;28;20414;-88
2022/05/22 01:30:26;;;;;;;11.50;5.07;;;15.20;97.90;;;;;;4960149;28;20031;-88
2022/05/22 01:32:52;;;;;;;10.98;4.68;;;15.20;97.90;;;;;;4976595;28;20023;-88
2022/05/22 01:35:23;;;;;;;8.90;4.22;;;15.20;97.80;;;;;;4976520;28;20042;-87
2022/05/22 01:37:50;;;;;;;12.80;4.53;;;15.10;97.90;;;;;;4976212;28;20027;-88
2022/05/22 01:40:17;;;;;;;10.85;4.18;;;15.10;97.90;;;;;;4976299;28;20026;-88
2022/05/22 01:42:43;;;;;;;9.60;4.35;;;15.00;97.90;;;;;;4975863;28;20026;-88
2022/05/22 01:45:12;;;;;;;9.50;4.28;;;15.00;98.00;;;;;;4960300;28;20060;-88
2022/05/22 01:47:38;;;;;;;8.02;3.53;;;15.00;98.00;;;;;;4976062;28;20026;-88
2022/05/22 01:50:06;;;;;;;12.45;4.47;;;15.00;98.20;;;;;;4976123;28;20466;-88
2022/05/22 01:52:32;;;;;;;9.48;4.40;;;15.00;98.30;;;;;;4993372;28;20037;-88
2022/05/22 01:54:58;;;;;;;8.52;4.03;;;15.00;98.40;;;;;;4976219;28;20035;-88
2022/05/22 01:57:23;;;;;;;11.43;5.35;;;14.90;98.40;;;;;;4962376;28;20030;-88
2022/05/22 01:59:49;;;;;;;10.82;4.35;;;14.90;98.50;;;;;;4979666;28;20398;-88
2022/05/22 02:02:15;;;;;;;10.25;4.53;;;14.90;98.70;;;;;;4963953;28;20038;-88
2022/05/22 02:04:41;;;;;;;10.43;4.57;;;14.90;98.70;;;;;;4980819;28;20027;-89
2022/05/22 02:09:50;;;;;;;10.68;4.65;;;14.80;98.80;;;;;;4996963;28;20117;-88
2022/05/22 02:12:16;;;;;;;11.45;5.03;;;14.80;98.80;;;;;;4963656;28;20030;-87
2022/05/22 02:14:42;;;;;;;12.23;5.55;;;14.80;98.90;;;;;;4979660;28;20027;-87
2022/05/22 02:17:08;;;;;;;10.77;5.68;;;14.80;98.90;;;;;;4945339;28;20027;-88
2022/05/22 02:19:33;;;;;;;10.75;5.22;;;14.70;98.90;;;;;;4960021;28;20467;-88
2022/05/22 02:21:59;;;;;;;10.73;4.95;;;14.70;98.90;;;;;;4960241;28;20049;-88
2022/05/22 02:24:25;;;;;;;10.55;4.85;;;14.70;99.00;;;;;;4960185;28;20034;-88
2022/05/22 02:26:50;;;;;;;10.20;5.22;;;14.60;98.90;;;;;;4960307;28;20027;-88
2022/05/22 02:29:16;;;;;;;6.45;3.97;;;14.60;98.90;;;;;;4977130;28;20029;-87
2022/05/22 02:31:42;;;;;;;8.15;3.90;;;14.60;98.90;;;;;;4960091;28;20037;-87
2022/05/22 02:34:08;;;;;;;8.65;4.25;;;14.50;98.80;;;;;;4959744;28;20102;-87
2022/05/22 02:36:34;;;;;;;8.10;4.35;;;14.50;98.90;;;;;;4960067;28;20054;-88
2022/05/22 02:38:59;;;;;;;10.05;4.30;;;14.50;98.90;;;;;;4943538;28;20030;-87
2022/05/22 02:41:25;;;;;;;9.80;4.38;;;14.40;98.90;;;;;;4959968;28;20122;-89
2022/05/22 02:43:52;;;;;;;9.05;4.95;;;14.40;99.00;;;;;;4976747;28;20155;-88
2022/05/22 02:46:19;;;;;;;12.88;6.07;;;14.40;99.10;;;;;;4959963;28;20027;-87
2022/05/22 02:48:44;;;;;;;11.18;4.82;;;14.40;99.20;;;;;;4960050;28;20127;-87
2022/05/22 02:51:12;;;;;;;10.98;5.30;;;14.30;99.20;;;;;;4943476;28;20127;-88
2022/05/22 02:53:38;;;;;;;11.80;5.15;;;14.30;99.20;;;;;;4959686;28;20100;-88
2022/05/22 02:56:09;;;;;;;12.38;4.38;;;14.30;99.20;;;;;;4959709;28;20031;-88
2022/05/22 02:58:35;;;;;;;8.48;4.50;;;14.30;99.30;;;;;;4959404;28;20478;-88
2022/05/22 03:01:00;;;;;;;11.57;4.38;;;14.20;99.30;;;;;;4944367;28;20037;-89
2022/05/22 03:03:26;;;;;;;10.00;4.65;;;14.20;99.30;;;;;;4944011;28;20030;-88
2022/05/22 03:08:35;;;;;;;9.18;4.72;;;14.20;99.30;;;;;;4976682;28;20066;-88
2022/05/22 03:11:05;;;;;;;8.00;4.43;;;14.10;99.40;;;;;;4943293;28;20483;-88
2022/05/22 03:13:31;;;;;;;10.48;4.53;;;14.10;99.40;;;;;;4959458;28;20062;-89
2022/05/22 03:15:57;;;;;;;7.18;4.38;;;14.10;99.50;;;;;;4959386;28;20027;-88
2022/05/22 03:18:23;;;;;;;7.13;3.85;;;14.10;99.50;;;;;;4943075;28;20027;-88
2022/05/22 03:20:49;;;;;;;7.55;4.15;;;14.00;99.50;;;;;;4958545;28;20043;-89
2022/05/22 03:23:15;;;;;;;8.23;4.40;;;14.00;99.60;;;;;;4958474;28;20043;-87
2022/05/22 03:25:42;;;;;;;9.13;4.25;;;14.00;99.60;;;;;;4959310;28;20435;-87
2022/05/22 03:28:08;;;;;;;7.63;4.20;;;13.90;99.70;;;;;;4975986;28;20146;-87
2022/05/22 03:30:33;;;;;;;10.25;4.13;;;13.90;99.70;;;;;;4943448;28;20114;-88
2022/05/22 03:32:59;;;;;;;9.18;4.35;;;13.90;99.80;;;;;;4942999;28;20496;-87
2022/05/22 03:35:24;;;;;;;8.13;4.30;;;13.90;99.90;;;;;;4943255;28;20059;-87
2022/05/22 03:37:50;;;;;;;8.88;3.78;;;13.90;99.90;;;;;;4942987;28;20356;-87
2022/05/22 03:40:16;;;;;;;9.52;4.20;;;13.80;99.90;;;;;;4958803;28;20069;-88
2022/05/22 03:42:41;;;;;;;7.30;3.85;;;13.80;99.90;;;;;;4942850;28;20042;-88
2022/05/22 03:45:08;;;;;;;8.65;4.10;;;13.80;99.90;;;;;;4942876;28;20038;-89
2022/05/22 03:47:38;;;;;;;6.72;3.72;;;13.80;99.90;;;;;;4976241;28;20027;-88
2022/05/22 03:50:06;;;;;;;8.02;3.85;;;13.80;99.90;;;;;;4943258;28;20463;-88
2022/05/22 03:52:40;;;;;;;7.65;3.88;;;13.80;99.90;;;;;;4943043;28;20129;-88
2022/05/22 03:55:10;;;;;;;9.88;3.90;;;13.80;99.90;;;;;;4958479;28;20069;-88
2022/05/22 03:57:35;;;;;;;8.60;4.20;;;13.80;99.90;;;;;;4958609;28;20030;-88
2022/05/22 04:00:10;;;;;;;9.68;4.40;;;13.70;99.90;;;;;;4957443;28;20031;-89
2022/05/22 04:02:35;;;;;;;12.63;4.68;;;13.70;99.90;;;;;;4956568;28;20031;-88
2022/05/22 04:05:02;;;;;;;10.45;4.43;;;13.70;99.90;;;;;;4956453;28;20053;-88
2022/05/22 04:07:28;;;;;;;7.57;4.32;;;13.70;99.90;;;;;;4956424;28;20109;-88
2022/05/22 04:09:55;;;;;;;9.18;4.55;;;13.70;99.90;;;;;;4940171;28;20516;-88
2022/05/22 04:12:21;;;;;;;9.93;4.38;;;13.60;99.90;;;;;;4956475;28;20038;-87
2022/05/22 04:14:46;;;;;;;8.02;4.38;;;13.60;99.90;;;;;;4956699;28;20034;-87
2022/05/22 04:17:12;;;;;;;9.95;4.70;;;13.60;99.90;;;;;;4942302;28;20031;-87
2022/05/22 04:19:38;;;;;;;6.30;3.92;;;13.60;99.90;;;;;;4957282;28;20034;-88
2022/05/22 04:22:05;;;;;;;9.38;4.05;;;13.60;99.90;;;;;;4957855;28;20129;-87
2022/05/22 04:27:15;;;;;;;7.28;4.28;;;13.60;99.90;;;;;;4960552;28;20081;-87
2022/05/22 04:29:41;;;;;;;8.65;4.38;;;13.60;99.90;;;;;;4957851;28;20031;-88
2022/05/22 04:32:07;;;;;;;9.77;4.60;;;13.60;99.90;;;;;;4941896;28;20141;-87
2022/05/22 04:34:33;;;;;;;10.60;4.97;;;13.60;99.90;;;;;;4974790;28;20031;-88
2022/05/22 04:36:58;;;;;;;9.52;4.93;;;13.60;99.90;;;;;;4958130;28;20446;-88
2022/05/22 04:39:24;;;;;;;8.88;4.80;;;13.60;99.90;;;;;;4975084;28;20031;-87
2022/05/22 04:41:50;;;;;;;10.07;5.00;;;13.60;99.90;;;;;;4942987;28;20034;-87
2022/05/22 04:44:16;;;;;;;9.10;5.00;;;13.60;99.90;;;;;;4957712;28;20071;-88
2022/05/22 04:46:41;;;;;;;9.75;5.15;;;13.60;99.90;;;;;;4957993;28;20419;-88
2022/05/22 04:49:07;;;;;;;8.43;5.10;;;13.60;99.90;;;;;;4957870;28;20085;-88
2022/05/22 04:51:32;;;;;;;9.85;5.32;;;13.60;99.90;;;;;;4958120;28;20077;-87
2022/05/22 04:53:58;;;;;;;10.25;5.80;;;13.60;99.90;;;;;;4974972;28;20043;-88
2022/05/22 04:56:24;;;;;;;11.00;5.88;;;13.70;99.90;;;;;;4957510;28;20030;-87
2022/05/22 04:58:50;;;;;;;10.00;6.30;;;13.70;99.90;;;;;;4957798;28;20022;-87
2022/05/22 05:01:16;;;;;;;14.48;6.80;;;13.70;99.90;;;;;;4957294;28;20026;-87
2022/05/22 05:03:42;;;;;;;12.48;6.60;;;13.70;99.90;;;;;;4957529;28;20038;-88
2022/05/22 05:06:07;;;;;;;11.98;6.43;;;13.70;99.90;;;;;;4957431;28;20034;-87
2022/05/22 05:08:33;;;;;;;13.55;7.00;;;13.70;99.90;;;;;;4941655;28;20031;-88
2022/05/22 05:11:00;;;;;;;14.23;7.15;;;13.70;99.90;;;;;;4957807;28;20506;-88
2022/05/22 05:13:27;;;;;;;9.70;6.30;;;13.70;99.90;;;;;;4957263;28;20038;-89
2022/05/22 05:16:01;;;;;;;12.63;6.90;;;13.70;99.90;;;;;;4957434;28;20447;-87
2022/05/22 05:18:27;;;;;;;13.35;7.55;;;13.80;99.90;;;;;;4974524;28;20026;-89
2022/05/22 05:20:54;;;;;;;12.95;7.43;;;13.80;99.90;;;;;;4957598;28;20126;-88
2022/05/22 05:23:20;;;;;;;12.13;7.35;;;13.80;99.90;;;;;;4957013;28;20035;-88
2022/05/22 05:25:46;;;;;;;12.02;7.30;;;13.80;99.90;;;;;;4957337;28;20027;-87
2022/05/22 05:28:11;;;;;;;14.68;7.85;;;13.80;99.90;;;;;;4941280;28;20061;-88
2022/05/22 05:30:37;;;;;;;14.15;8.32;;;13.80;99.90;;;;;;4975703;28;20031;-89
2022/05/22 05:33:03;;;;;;;13.25;7.70;;;13.80;99.90;;;;;;4945403;28;20618;-88
2022/05/22 05:35:29;;;;;;;11.77;8.10;;;13.90;99.90;;;;;;4978304;28;20035;-88
2022/05/22 05:37:54;;;;;;;16.42;8.20;;;13.90;99.90;;;;;;4945156;28;20027;-88
2022/05/22 05:40:20;;;;;;;11.25;7.25;;;13.90;99.90;;;;;;4960542;28;20031;-87
2022/05/22 05:42:46;;;;;;;12.63;7.80;;;13.90;99.90;;;;;;4961103;28;20090;-87
2022/05/22 05:45:13;;;;;;;14.60;8.05;;;14.00;99.90;;;;;;4960965;28;20467;-88
2022/05/22 05:47:38;;;;;;;11.88;7.20;;;14.00;99.90;;;;;;4961056;28;20054;-89
2022/05/22 05:50:05;;;;;;;11.60;7.13;;;14.00;99.90;;;;;;4960760;28;20034;-88
2022/05/22 05:52:31;;;;;;;13.25;6.90;;;14.10;99.90;;;;;;4960615;28;20027;-87
2022/05/22 05:54:57;;;;;;;10.90;7.05;;;14.10;99.90;;;;;;4961010;28;20052;-88
2022/05/22 05:57:23;;;;;;;12.60;7.05;;;14.10;99.90;;;;;;4944646;28;20030;-87
2022/05/22 05:59:54;;;;;;;13.35;7.00;;;14.10;99.90;;;;;;4960491;28;20023;-89
2022/05/22 06:02:20;;;;;;;16.13;8.45;;;14.20;99.90;;;;;;4963798;28;20122;-88
2022/05/22 06:04:46;;;;;;;14.88;9.43;;;14.20;99.90;;;;;;4946669;28;20506;-88
2022/05/22 06:07:11;;;;;;;16.75;9.02;;;14.20;99.90;;;;;;4954747;28;20038;-88
2022/05/22 06:09:37;;;;;;;21.13;10.32;;;14.20;99.90;;;;;;4954511;28;20039;-88
2022/05/22 06:12:04;;;;;;;17.38;9.85;;;14.30;99.90;;;;;;4948600;29;20035;-87
2022/05/22 06:14:30;;;;;;;20.10;10.00;;;14.30;99.90;;;;;;4943378;28;20035;-87
2022/05/22 06:16:56;;;;;;;18.67;9.18;;;14.30;99.90;;;;;;4977644;28;20031;-88
2022/05/22 06:22:07;;;;;;;12.65;8.13;;;14.50;99.90;;;;;;4977490;28;20061;-88
2022/05/22 06:24:36;;;;;;;14.50;8.73;;;14.50;99.90;;;;;;4959983;28;20506;-87
2022/05/22 06:27:03;;;;;;;18.55;9.48;;;14.50;99.90;;;;;;4977672;28;20026;-88
2022/05/22 06:29:29;;;;;;;13.43;8.50;;;14.60;99.90;;;;;;4961082;28;20038;-87
2022/05/22 06:31:54;;;;;;;16.08;8.77;;;14.60;99.90;;;;;;4966610;28;20023;-87
2022/05/22 06:34:24;;;;;;;15.43;8.93;;;14.70;99.90;;;;;;4951792;28;20081;-88
2022/05/22 06:36:51;;;;;;;14.30;8.70;;;14.70;99.90;;;;;;4969375;28;20030;-87
2022/05/22 06:42:01;;;;;;;12.82;7.45;;;14.80;99.90;;;;;;4967722;28;20106;-87
2022/05/22 06:44:27;;;;;;;12.18;7.70;;;14.90;99.90;;;;;;4959047;28;20036;-89
2022/05/22 06:46:53;;;;;;;12.48;7.63;;;15.00;99.90;;;;;;4982356;28;20076;-87
2022/05/22 06:49:19;;;;;;;13.25;6.18;;;15.00;99.90;;;;;;4959506;28;20042;-87
2022/05/22 06:51:46;;;;;;;10.80;5.38;;;15.10;99.90;;;;;;4976532;28;20445;-87
2022/05/22 06:54:11;;;;;;;9.23;4.85;;;15.10;99.90;;;;;;4976946;28;20481;-87
2022/05/22 06:56:37;;;;;;;10.05;4.25;;;15.20;99.90;;;;;;4976659;28;20121;-87
2022/05/22 06:59:02;;;;;;;9.88;4.13;;;15.30;99.90;;;;;;4943468;28;20130;-87
2022/05/22 07:01:29;;;;;;;10.73;3.60;;;15.30;99.90;;;;;;4951022;28;20067;-87
2022/05/22 07:03:55;;;;;;;8.30;3.92;;;15.40;99.90;;;;;;4974250;28;20055;-88
2022/05/22 07:06:20;;;;;;;11.02;4.35;;;15.50;99.90;;;;;;4957511;28;20431;-88
2022/05/22 07:08:46;;;;;;;9.00;4.70;;;15.50;99.90;;;;;;4950712;28;20027;-85
2022/05/22 07:13:56;;;;;;;12.93;5.03;;;15.70;99.90;;;;;;4969052;28;20490;-85
2022/05/22 07:16:24;;;;;;;10.68;4.68;;;15.70;99.90;;;;;;4959987;28;20022;-88
2022/05/22 07:18:50;;;;;;;11.95;4.95;;;15.80;99.90;;;;;;4942203;28;20217;-88
2022/05/22 07:21:15;;;;;;;13.25;4.78;;;15.90;99.90;;;;;;4957382;28;20448;-88
2022/05/22 07:23:41;;;;;;;10.02;4.15;;;16.00;99.90;;;;;;4957006;28;20038;-88
2022/05/22 07:26:08;;;;;;;10.20;3.63;;;16.10;99.90;;;;;;4958496;28;20027;-87
2022/05/22 07:28:34;;;;;;;10.35;3.80;;;16.10;99.90;;;;;;4926939;28;20027;-88
2022/05/22 07:31:02;;;;;;;11.32;3.45;;;16.20;99.90;;;;;;4958576;28;20085;-88
2022/05/22 07:33:28;;;;;;;14.75;3.72;;;16.30;99.90;;;;;;4958544;28;20046;-89
2022/05/22 07:35:58;;;;;;;8.32;2.90;;;16.30;99.90;;;;;;4926527;28;20030;-88
2022/05/22 07:38:24;;;;;;;7.60;2.92;;;16.40;99.90;;;;;;4957487;28;20018;-88
2022/05/22 07:40:54;;;;;;;5.90;2.13;;;16.50;99.90;;;;;;4958255;28;20039;-88
2022/05/22 07:43:21;;;;;;;7.32;2.70;;;16.60;99.90;;;;;;4952452;28;20542;-87
2022/05/22 07:45:47;;;;;;;8.48;2.90;;;16.60;99.90;;;;;;4951866;28;20022;-88
2022/05/22 07:48:13;;;;;;;8.93;2.40;;;16.70;99.90;;;;;;4946597;28;20403;-88
2022/05/22 07:50:40;;;;;;;11.35;3.83;;;16.80;99.90;;;;;;4941809;28;20440;-88
2022/05/22 07:53:06;;;;;;;8.73;2.75;;;16.90;99.90;;;;;;4952139;28;20110;-88
2022/05/22 07:55:31;;;;;;;7.40;2.58;;;16.90;99.90;;;;;;4965330;28;20058;-87
2022/05/22 07:57:57;;;;;;;7.05;2.45;;;17.00;99.90;;;;;;4977473;28;20034;-86
2022/05/22 08:00:23;;;;;;;7.60;2.58;;;17.10;99.90;;;;;;4961280;28;20033;-88
2022/05/22 08:02:49;;;;;;;6.53;2.42;;;17.10;99.90;;;;;;4977132;28;20030;-88
2022/05/22 08:05:19;;;;;;;6.88;1.83;;;17.30;99.90;;;;;;4977599;28;20467;-87
2022/05/22 08:07:47;;;;;;;8.02;2.20;;;17.30;99.70;;;;;;4994799;28;20401;-92
2022/05/22 08:10:15;;;;;;;11.52;2.17;;;17.40;99.30;;;;;;4994765;28;20070;-88
2022/05/22 08:12:44;;;;;;;10.02;2.30;;;17.50;98.80;;;;;;4994612;28;20105;-88
2022/05/22 08:15:11;;;;;;;6.40;2.78;;;17.60;98.50;;;;;;4976993;28;20084;-86
2022/05/22 08:17:37;;;;;;;6.50;2.28;;;17.60;97.70;;;;;;4976587;28;20022;-87
2022/05/22 08:20:08;;;;;;;6.72;2.28;;;17.70;98.00;;;;;;4977349;28;20053;-88
2022/05/22 08:22:35;;;;;;;10.60;2.30;;;17.80;98.20;;;;;;4977004;28;20441;-88
2022/05/22 08:25:02;;;;;;;9.38;2.22;;;17.90;97.80;;;;;;4977064;28;20019;-88
2022/05/22 08:27:28;;;;;;;8.50;2.40;;;18.00;97.60;;;;;;4957008;28;20124;-89
2022/05/22 08:29:57;;;;;;;8.30;2.10;;;18.10;97.30;;;;;;4945391;28;20057;-88
2022/05/22 08:32:23;;;;;;;7.18;2.00;;;18.10;96.60;;;;;;4952213;28;20030;-89
2022/05/22 08:34:51;;;;;;;6.93;2.13;;;18.20;96.40;;;;;;4960554;28;20154;-87
2022/05/22 08:37:16;;;;;;;5.05;1.85;;;18.30;96.30;;;;;;4939339;28;20038;-86
2022/05/22 08:39:42;;;;;;;6.50;1.73;;;18.30;96.40;;;;;;4941497;28;20031;-87
2022/05/22 08:42:13;;;;;;;7.05;1.85;;;18.40;96.20;;;;;;4957497;28;20047;-88
2022/05/22 08:44:39;;;;;;;7.90;2.08;;;18.50;95.80;;;;;;4952540;28;20042;-88
2022/05/22 08:47:36;;;;;;;5.22;1.48;;;18.50;95.50;;;;;;4953137;28;20058;-86
2022/05/22 08:50:06;;;;;;;7.22;1.58;;;18.60;95.00;;;;;;4952863;28;20082;-90
2022/05/22 08:52:51;;;;;;;4.65;1.58;;;18.60;94.30;;;;;;4964760;28;20027;-90
2022/05/22 08:55:25;;;;;;;5.85;1.65;;;18.70;93.50;;;;;;4974696;28;20061;-87
2022/05/22 09:01:17;;;;;;;4.88;1.33;;;18.80;93.90;;;;;;4974558;28;20046;-87
2022/05/22 09:03:55;;;;;;;4.88;1.52;;;18.90;93.70;;;;;;4957110;28;20086;-88
2022/05/22 09:06:37;;;;;;;7.72;1.90;;;18.90;93.60;;;;;;4974198;28;20505;-88
2022/05/22 09:09:03;;;;;;;6.93;1.77;;;19.00;93.50;;;;;;4974418;28;20062;-87
2022/05/22 09:12:08;;;;;;;6.45;1.42;;;19.10;93.40;;;;;;4974527;28;20057;-87
2022/05/22 09:14:51;;;;;;;6.50;1.63;;;19.10;93.40;;;;;;4957312;28;20030;-90
2022/05/22 09:17:22;;;;;;;7.38;1.58;;;19.20;93.30;;;;;;4957217;28;20118;-88
2022/05/22 09:20:07;;;;;;;5.63;1.63;;;19.20;93.10;;;;;;4974288;28;20023;-87
2022/05/22 09:23:08;;;;;;;6.45;1.80;;;19.30;92.70;;;;;;4974133;28;20035;-87
2022/05/22 09:25:59;;;;;;;6.03;1.60;;;19.40;92.40;;;;;;4938741;28;20039;-87
2022/05/22 09:28:33;;;;;;;7.82;1.60;;;19.40;92.30;;;;;;4957597;28;20118;-87
2022/05/22 09:31:17;;;;;;;6.38;1.55;;;19.50;92.50;;;;;;4952749;28;20082;-87
2022/05/22 09:34:24;;;;;;;8.05;2.03;;;19.50;92.50;;;;;;4955283;28;20019;-88
2022/05/22 09:37:13;;;;;;;5.10;1.85;;;19.60;91.90;;;;;;4960345;28;20585;-86
2022/05/22 09:40:07;;;;;;;4.78;1.92;;;19.60;91.80;;;;;;4948166;28;20039;-86
2022/05/22 09:42:33;;;;;;;6.22;1.70;;;19.70;91.60;;;;;;4937529;29;20039;-86
2022/05/22 09:45:32;;;;;;;7.03;1.95;;;19.70;91.30;;;;;;4953092;29;20078;-86
2022/05/22 09:48:07;;;;;;;8.90;2.20;;;19.80;91.10;;;;;;4936255;29;20066;-86
2022/05/22 09:50:59;;;;;;;6.28;1.83;;;19.90;90.30;;;;;;4937425;29;20024;-85
2022/05/22 09:53:30;;;;;;;7.88;1.98;;;19.90;90.00;;;;;;4967677;28;20037;-86
2022/05/22 09:56:13;;;;;;;6.13;1.88;;;19.90;89.70;;;;;;4973187;28;20023;-86
2022/05/22 09:58:57;;;;;;;5.63;1.73;;;20.00;89.70;;;;;;4956641;28;20089;-88
2022/05/22 10:01:39;;;;;;;5.78;1.80;;;20.00;89.30;;;;;;4956260;28;20030;-86
2022/05/22 10:04:16;;;;;;;4.97;1.50;;;20.10;89.30;;;;;;4974920;28;20023;-86
2022/05/22 10:07:09;;;;;;;5.18;2.00;;;20.10;88.60;;;;;;4956225;28;20031;-86
2022/05/22 10:09:57;;;;;;;8.55;2.03;;;20.20;88.20;;;;;;4943757;28;20393;-86
2022/05/22 10:12:47;;;;;;;7.45;2.25;;;20.20;88.70;;;;;;4954780;29;20090;-87
2022/05/22 10:15:15;;;;;;;6.30;2.37;;;20.30;89.30;;;;;;4954172;29;20082;-86
2022/05/22 10:18:23;;;;;;;4.40;1.60;;;20.30;89.00;;;;;;4966238;28;20090;-89
2022/05/22 10:20:55;;;;;;;5.93;1.73;;;20.40;88.00;;;;;;4973359;28;20439;-86
2022/05/22 10:24:02;;;;;;;6.25;2.10;;;20.50;87.60;;;;;;4981958;28;20044;-86
2022/05/22 10:26:42;;;;;;;5.30;1.80;;;20.50;88.20;;;;;;4996401;28;20057;-86
2022/05/22 10:29:22;;;;;;;5.15;1.83;;;20.60;88.70;;;;;;4979096;28;20026;-86
2022/05/22 10:32:02;;;;;;;7.20;2.22;;;20.60;89.20;;;;;;4995340;28;20030;-87
2022/05/22 10:34:38;;;;;;;8.95;2.20;;;20.70;89.20;;;;;;4979226;28;20082;-86
2022/05/22 10:37:14;;;;;;;6.85;2.63;;;20.80;88.80;;;;;;4976612;28;20039;-86
2022/05/22 10:39:39;;;;;;;6.28;2.75;;;20.80;87.90;;;;;;4959537;28;20081;-86
2022/05/22 10:42:45;;;;;;;10.05;2.65;;;20.90;87.90;;;;;;4959183;28;20043;-86
2022/05/22 10:45:36;;;;;;;7.50;2.33;;;20.90;86.80;;;;;;4972111;28;20368;-86
2022/05/22 10:48:25;;;;;;;4.07;2.10;;;21.00;85.70;;;;;;4958745;28;20031;-87
2022/05/22 10:51:01;;;;;;;6.70;2.55;;;21.00;86.20;;;;;;4978198;28;20597;-91
2022/05/22 10:53:35;;;;;;;10.52;3.30;;;21.00;86.30;;;;;;4955452;28;20037;-89
2022/05/22 10:56:14;;;;;;;7.68;3.22;;;21.00;85.50;;;;;;4960237;28;20019;-90
2022/05/22 10:58:56;;;;;;;5.70;2.95;;;21.10;85.50;;;;;;4958857;28;20038;-89
2022/05/22 11:01:25;;;;;;;7.78;3.03;;;21.20;85.10;;;;;;4959670;28;20507;-89
2022/05/22 11:04:12;;;;;;;7.57;2.88;;;21.20;85.00;;;;;;4958976;28;20441;-90
2022/05/22 11:06:51;;;;;;;7.47;2.90;;;21.20;85.30;;;;;;4964257;28;20467;-89
2022/05/22 11:09:29;;;;;;;6.03;2.50;;;21.30;85.00;;;;;;4962409;28;20027;-89
2022/05/22 11:12:10;;;;;;;5.60;2.42;;;21.30;84.80;;;;;;4987958;28;20069;-87
2022/05/22 11:14:54;;;;;;;7.53;2.92;;;21.40;85.10;;;;;;4959069;28;20035;-89
2022/05/22 11:17:31;;;;;;;7.75;3.03;;;21.40;85.10;;;;;;4966076;28;20034;-89
2022/05/22 11:20:30;;;;;;;9.15;2.80;;;21.50;84.80;;;;;;4967902;28;20026;-89
2022/05/22 11:23:26;;;;;;;6.68;3.17;;;21.50;84.80;;;;;;4948970;28;20043;-89
2022/05/22 11:26:12;;;;;;;7.55;3.17;;;21.50;84.50;;;;;;4966613;28;21066;-89
2022/05/22 11:29:02;;;;;;;8.25;2.75;;;21.60;84.00;;;;;;4961389;28;20027;-90
2022/05/22 11:31:50;;;;;;;9.75;3.70;;;21.60;83.50;;;;;;4953280;28;20027;-89
2022/05/22 11:34:26;;;;;;;7.57;2.95;;;21.70;82.90;;;;;;4986399;28;20023;-89
2022/05/22 11:37:17;;;;;;;7.78;2.85;;;21.70;81.60;;;;;;4966518;28;20463;-90
2022/05/22 11:40:22;;;;;;;8.13;3.25;;;21.80;80.30;;;;;;4976322;28;20023;-88
2022/05/22 11:43:05;;;;;;;7.32;3.00;;;21.80;79.70;;;;;;4962094;28;20113;-89
2022/05/22 11:45:52;;;;;;;7.95;3.22;;;21.80;78.70;;;;;;4976951;28;20035;-88
2022/05/22 11:49:11;;;;;;;10.10;3.50;;;21.90;77.40;;;;;;4957519;28;20033;-89
2022/05/22 11:51:48;;;;;;;7.88;3.60;;;21.90;76.30;;;;;;4950045;28;20110;-89
2022/05/22 11:54:14;;;;;;;9.02;4.20;;;22.00;76.10;;;;;;4962273;28;20027;-89
2022/05/22 11:57:08;;;;;;;8.63;4.13;;;22.00;76.20;;;;;;4957882;28;20067;-88
2022/05/22 12:00:00;;;;;;;6.60;3.45;;;22.10;76.40;;;;;;4974323;28;20379;-90
2022/05/22 12:03:11;;;;;;;9.25;3.70;;;22.10;76.00;;;;;;4956680;28;20038;-92
2022/05/22 12:05:38;;;;;;;9.73;3.83;;;22.20;74.70;;;;;;4952780;28;20039;-92
2022/05/22 12:08:33;;;;;;;8.25;3.78;;;22.20;74.70;;;;;;4966707;28;20049;-93
2022/05/22 12:11:07;;;;;;;7.97;3.55;;;22.30;75.50;;;;;;4976360;28;20467;-91
2022/05/22 12:14:33;;;;;;;;;;;;;;;;;;;;;
2022/05/22 12:17:50;;;;;;;8.07;3.63;;;22.40;77.60;;;;;;4940317;28;20471;-96
2022/05/22 12:24:05;;;;;;;10.48;3.53;;;22.60;76.60;;;;;;4908105;28;20042;-86
2022/05/22 12:26:36;;;;;;;9.20;3.95;;;22.70;74.90;;;;;;4955975;28;20042;-86
2022/05/22 12:29:13;;;;;;;9.95;4.32;;;22.70;72.70;;;;;;4972435;28;20034;-86
2022/05/22 12:32:09;;;;;;;8.80;4.22;;;22.70;72.10;;;;;;4938400;29;20031;-86
2022/05/22 12:34:44;;;;;;;10.20;4.13;;;22.70;72.80;;;;;;4934098;29;20074;-88
2022/05/22 12:37:15;;;;;;;6.85;3.72;;;22.70;73.00;;;;;;4955061;29;20086;-87
2022/05/22 12:39:56;;;;;;;6.90;3.58;;;22.70;73.90;;;;;;4972415;28;20033;-89
2022/05/22 12:42:35;;;;;;;7.43;4.10;;;22.70;74.70;;;;;;4976995;28;20378;-88
2022/05/22 12:45:01;;;;;;;9.40;4.20;;;22.80;75.10;;;;;;4977052;28;20030;-89
2022/05/22 12:47:47;;;;;;;8.05;4.15;;;22.90;73.90;;;;;;4976475;28;20386;-89
2022/05/22 12:50:26;;;;;;;7.68;3.97;;;22.90;72.30;;;;;;4992956;28;20537;-88
2022/05/22 12:52:53;;;;;;;7.25;3.78;;;23.00;73.30;;;;;;4975230;28;20169;-89
2022/05/22 12:55:33;;;;;;;8.45;3.95;;;23.10;73.30;;;;;;4975400;28;20080;-89
2022/05/22 12:58:02;;;;;;;8.43;4.22;;;23.10;73.50;;;;;;4975362;28;20113;-93
2022/05/22 13:00:41;;;;;;;9.68;4.13;;;23.20;74.00;;;;;;4976870;28;20374;-89
2022/05/22 13:03:22;;;;;;;13.70;4.38;;;23.30;73.80;;;;;;4976824;28;20034;-89
2022/05/22 13:06:05;;;;;;;9.00;3.67;;;23.40;73.50;;;;;;4976846;28;20026;-88
2022/05/22 13:08:44;;;;;;;6.30;3.63;;;23.50;74.10;;;;;;4976887;28;20026;-88
2022/05/22 13:11:19;;;;;;;7.45;3.80;;;23.50;74.10;;;;;;4976594;28;20128;-88
2022/05/22 13:13:51;;;;;;;10.35;4.20;;;23.60;73.20;;;;;;4994148;28;20022;-88
2022/05/22 13:16:28;;;;;;;9.50;4.07;;;23.70;71.10;;;;;;4976445;28;20033;-88
2022/05/22 13:18:55;;;;;;;6.82;3.70;;;23.70;70.90;;;;;;4993565;28;20025;-89
2022/05/22 13:21:35;;;;;;;9.30;4.40;;;23.80;70.70;;;;;;4976242;28;20042;-88
2022/05/22 13:24:21;;;;;;;11.43;5.33;;;23.80;69.50;;;;;;4976749;28;20034;-88
2022/05/22 13:27:01;;;;;;;10.80;4.55;;;23.80;68.90;;;;;;4976834;28;20403;-88
2022/05/22 13:29:42;;;;;;;7.55;3.83;;;23.80;69.40;;;;;;4976362;28;20033;-88
2022/05/22 13:32:18;;;;;;;9.02;3.40;;;23.90;70.30;;;;;;4994055;28;20054;-88
2022/05/22 13:34:50;;;;;;;9.10;4.32;;;23.90;70.70;;;;;;4993429;28;20026;-88
2022/05/22 13:37:28;;;;;;;10.55;4.22;;;24.00;70.50;;;;;;4993640;28;20062;-88